createdAt,value
2017-07-17T00:00:38.046Z,0
2017-07-17T00:01:18.937Z,0
2017-07-17T00:01:59.823Z,0
2017-07-17T00:02:40.709Z,0
2017-07-17T00:03:21.608Z,0
2017-07-17T00:04:02.527Z,0
2017-07-17T00:04:43.411Z,0
2017-07-17T00:05:24.306Z,0
2017-07-17T00:06:05.199Z,0
2017-07-17T00:06:46.092Z,0
2017-07-17T00:07:26.988Z,0
2017-07-17T00:08:07.906Z,0
2017-07-17T00:08:48.787Z,0
2017-07-17T00:09:29.679Z,0
2017-07-17T00:10:10.563Z,0
2017-07-17T00:10:51.458Z,0
2017-07-17T00:11:32.348Z,0
2017-07-17T00:12:13.235Z,0
2017-07-17T00:12:54.127Z,0
2017-07-17T00:13:35.020Z,0
2017-07-17T00:14:15.916Z,0
2017-07-17T00:14:56.802Z,0
2017-07-17T00:15:37.692Z,0
2017-07-17T00:16:18.568Z,0
2017-07-17T00:16:59.459Z,0
2017-07-17T00:17:40.358Z,0
2017-07-17T00:18:21.246Z,0
2017-07-17T00:19:02.136Z,0
2017-07-17T00:19:43.033Z,0
2017-07-17T00:20:23.915Z,0
2017-07-17T00:21:04.800Z,0
2017-07-17T00:21:45.711Z,0
2017-07-17T00:22:26.607Z,0
2017-07-17T00:23:07.503Z,0
2017-07-17T00:23:48.387Z,0
2017-07-17T00:24:29.275Z,0
2017-07-17T00:25:10.162Z,0
2017-07-17T00:25:51.065Z,0
2017-07-17T00:26:31.956Z,0
2017-07-17T00:27:12.835Z,0
2017-07-17T00:27:53.722Z,0
2017-07-17T00:28:34.614Z,0
2017-07-17T00:29:15.492Z,0
2017-07-17T00:29:56.392Z,0
2017-07-17T00:30:37.292Z,0
2017-07-17T00:31:18.160Z,0
2017-07-17T00:31:59.070Z,0
2017-07-17T00:32:39.959Z,0
2017-07-17T00:33:20.845Z,0
2017-07-17T00:34:01.725Z,0
2017-07-17T00:34:42.618Z,0
2017-07-17T00:35:23.502Z,0
2017-07-17T00:36:04.393Z,0
2017-07-17T00:36:45.284Z,0
2017-07-17T00:37:26.166Z,0
2017-07-17T00:38:07.046Z,0
2017-07-17T00:38:47.931Z,0
2017-07-17T00:39:28.820Z,0
2017-07-17T00:40:09.713Z,0
2017-07-17T00:40:50.601Z,0
2017-07-17T00:41:31.507Z,0
2017-07-17T00:42:12.388Z,0
2017-07-17T00:42:53.326Z,0
2017-07-17T00:43:34.193Z,0
2017-07-17T00:44:15.075Z,0
2017-07-17T00:44:55.964Z,0
2017-07-17T00:45:36.860Z,0
2017-07-17T00:46:17.749Z,0
2017-07-17T00:46:58.633Z,0
2017-07-17T00:47:39.537Z,0
2017-07-17T00:48:20.450Z,0
2017-07-17T00:49:01.304Z,0
2017-07-17T00:49:42.191Z,0
2017-07-17T00:50:23.083Z,0
2017-07-17T00:51:03.982Z,0
2017-07-17T00:51:44.870Z,0
2017-07-17T00:52:25.767Z,0
2017-07-17T00:53:06.685Z,0
2017-07-17T00:53:47.592Z,0
2017-07-17T00:54:28.482Z,0
2017-07-17T00:55:09.384Z,0
2017-07-17T00:55:50.266Z,0
2017-07-17T00:56:31.151Z,0
2017-07-17T00:57:12.048Z,0
2017-07-17T00:57:52.951Z,0
2017-07-17T00:58:33.849Z,0
2017-07-17T00:59:14.752Z,0
2017-07-17T00:59:55.634Z,0
2017-07-17T01:00:36.536Z,0
2017-07-17T01:01:17.419Z,0
2017-07-17T01:01:58.317Z,0
2017-07-17T01:02:39.208Z,0
2017-07-17T01:03:20.093Z,0
2017-07-17T01:04:00.987Z,0
2017-07-17T01:04:41.865Z,0
2017-07-17T01:05:22.792Z,0
2017-07-17T01:06:03.681Z,0
2017-07-17T01:06:44.572Z,0
2017-07-17T01:07:25.458Z,0
2017-07-17T01:08:06.354Z,0
2017-07-17T01:08:47.253Z,0
2017-07-17T01:09:28.138Z,0
2017-07-17T01:10:09.033Z,0
2017-07-17T01:10:49.930Z,0
2017-07-17T01:11:30.835Z,0
2017-07-17T01:12:11.729Z,0
2017-07-17T01:12:52.614Z,0
2017-07-17T01:13:33.496Z,0
2017-07-17T01:15:53.815Z,0
2017-07-17T01:16:34.688Z,0
2017-07-17T01:17:15.578Z,0
2017-07-17T01:17:56.469Z,0
2017-07-17T01:18:37.363Z,0
2017-07-17T01:19:18.263Z,0
2017-07-17T01:19:59.148Z,0
2017-07-17T01:20:40.034Z,0
2017-07-17T01:21:20.925Z,0
2017-07-17T01:22:01.813Z,0
2017-07-17T01:22:42.703Z,0
2017-07-17T01:23:23.596Z,0
2017-07-17T01:24:04.483Z,0
2017-07-17T01:24:45.365Z,0
2017-07-17T01:25:26.259Z,0
2017-07-17T01:26:07.157Z,0
2017-07-17T01:26:48.045Z,0
2017-07-17T01:27:28.932Z,0
2017-07-17T01:28:09.811Z,0
2017-07-17T01:28:50.707Z,0
2017-07-17T01:29:31.610Z,0
2017-07-17T01:30:12.514Z,0
2017-07-17T01:30:53.410Z,0
2017-07-17T01:31:34.295Z,0
2017-07-17T01:32:15.187Z,0
2017-07-17T01:32:56.088Z,0
2017-07-17T01:33:36.984Z,0
2017-07-17T01:34:17.867Z,0
2017-07-17T01:34:58.755Z,0
2017-07-17T01:35:39.644Z,0
2017-07-17T01:36:20.532Z,0
2017-07-17T01:37:01.424Z,0
2017-07-17T01:37:42.317Z,0
2017-07-17T01:38:23.209Z,0
2017-07-17T01:39:04.096Z,0
2017-07-17T01:39:44.980Z,0
2017-07-17T01:40:25.872Z,0
2017-07-17T01:41:06.776Z,0
2017-07-17T01:41:47.657Z,0
2017-07-17T01:42:28.554Z,0
2017-07-17T01:43:09.446Z,0
2017-07-17T01:43:50.345Z,0
2017-07-17T01:44:31.227Z,0
2017-07-17T01:45:12.120Z,0
2017-07-17T01:45:53.029Z,0
2017-07-17T01:46:33.917Z,0
2017-07-17T01:47:14.808Z,0
2017-07-17T01:47:55.698Z,0
2017-07-17T01:48:36.590Z,0
2017-07-17T01:49:17.495Z,0
2017-07-17T01:49:58.374Z,0
2017-07-17T01:50:39.263Z,0
2017-07-17T01:51:20.163Z,0
2017-07-17T01:52:01.049Z,0
2017-07-17T01:52:41.946Z,0
2017-07-17T01:53:22.846Z,0
2017-07-17T01:54:03.742Z,0
2017-07-17T01:54:44.641Z,0
2017-07-17T01:55:25.580Z,0
2017-07-17T01:56:06.420Z,0
2017-07-17T01:56:47.315Z,0
2017-07-17T01:57:28.201Z,0
2017-07-17T01:58:09.101Z,0
2017-07-17T01:58:49.989Z,0
2017-07-17T01:59:30.880Z,0
2017-07-17T02:00:11.772Z,0
2017-07-17T02:00:52.666Z,0
2017-07-17T02:01:33.576Z,0
2017-07-17T02:02:14.465Z,0
2017-07-17T02:02:55.356Z,0
2017-07-17T02:03:36.238Z,0
2017-07-17T02:04:17.129Z,0
2017-07-17T02:04:58.020Z,0
2017-07-17T02:05:38.911Z,0
2017-07-17T02:06:19.796Z,0
2017-07-17T02:07:00.693Z,0
2017-07-17T02:07:41.593Z,0
2017-07-17T02:08:22.476Z,0
2017-07-17T02:09:03.372Z,0
2017-07-17T02:09:44.249Z,0
2017-07-17T02:10:25.140Z,0
2017-07-17T02:11:06.025Z,0
2017-07-17T02:11:46.911Z,0
2017-07-17T02:12:27.817Z,0
2017-07-17T02:13:08.722Z,0
2017-07-17T02:13:49.605Z,0
2017-07-17T02:14:30.495Z,0
2017-07-17T02:15:11.378Z,0
2017-07-17T02:15:52.280Z,0
2017-07-17T02:16:33.166Z,0
2017-07-17T02:17:14.055Z,0
2017-07-17T02:17:54.939Z,0
2017-07-17T02:18:35.877Z,0
2017-07-17T02:19:16.732Z,0
2017-07-17T02:19:57.639Z,0
2017-07-17T02:20:38.508Z,0
2017-07-17T02:21:19.398Z,0
2017-07-17T02:22:00.280Z,0
2017-07-17T02:22:41.198Z,0
2017-07-17T02:23:22.074Z,0
2017-07-17T02:24:02.961Z,0
2017-07-17T02:24:43.843Z,0
2017-07-17T02:25:24.726Z,0
2017-07-17T02:26:05.637Z,0
2017-07-17T02:26:46.527Z,0
2017-07-17T02:27:27.424Z,0
2017-07-17T02:28:08.310Z,0
2017-07-17T02:28:49.195Z,0
2017-07-17T02:29:30.079Z,0
2017-07-17T02:30:10.965Z,0
2017-07-17T02:30:51.854Z,0
2017-07-17T02:31:32.751Z,0
2017-07-17T02:32:13.643Z,0
2017-07-17T02:32:54.525Z,0
2017-07-17T02:33:35.421Z,0
2017-07-17T02:34:16.314Z,0
2017-07-17T02:34:57.206Z,0
2017-07-17T02:35:38.097Z,0
2017-07-17T02:36:18.992Z,0
2017-07-17T02:36:59.890Z,0
2017-07-17T02:37:40.780Z,0
2017-07-17T02:38:21.671Z,0
2017-07-17T02:39:02.582Z,0
2017-07-17T02:39:43.463Z,0
2017-07-17T02:40:24.342Z,0
2017-07-17T02:41:05.233Z,0
2017-07-17T02:41:46.125Z,0
2017-07-17T02:42:27.008Z,0
2017-07-17T02:43:07.897Z,0
2017-07-17T02:43:48.787Z,0
2017-07-17T02:44:29.674Z,0
2017-07-17T02:45:10.560Z,0
2017-07-17T02:45:51.440Z,0
2017-07-17T02:46:32.331Z,0
2017-07-17T02:47:13.211Z,0
2017-07-17T02:47:54.102Z,0
2017-07-17T02:48:34.989Z,0
2017-07-17T02:49:15.879Z,0
2017-07-17T02:49:56.765Z,0
2017-07-17T02:50:37.650Z,0
2017-07-17T02:51:18.562Z,0
2017-07-17T02:51:59.438Z,0
2017-07-17T02:52:40.332Z,0
2017-07-17T02:53:21.268Z,0
2017-07-17T02:54:02.144Z,0
2017-07-17T02:54:43.034Z,0
2017-07-17T02:55:23.921Z,0
2017-07-17T02:56:04.820Z,0
2017-07-17T02:56:45.720Z,0
2017-07-17T02:57:26.615Z,0
2017-07-17T02:58:07.498Z,0
2017-07-17T02:58:48.385Z,0
2017-07-17T02:59:29.280Z,0
2017-07-17T03:00:10.171Z,0
2017-07-17T03:02:09.961Z,0
2017-07-17T03:02:50.827Z,0
2017-07-17T03:03:31.723Z,0
2017-07-17T03:04:12.620Z,0
2017-07-17T03:04:53.493Z,5
2017-07-17T03:05:34.395Z,5
2017-07-17T03:06:15.278Z,5
2017-07-17T03:06:56.166Z,5
2017-07-17T03:07:37.061Z,5
2017-07-17T03:08:17.960Z,5
2017-07-17T03:08:58.840Z,5
2017-07-17T03:09:39.725Z,5
2017-07-17T03:10:20.611Z,5
2017-07-17T03:11:01.515Z,5
2017-07-17T03:11:42.405Z,5
2017-07-17T03:12:23.294Z,5
2017-07-17T03:13:04.180Z,5
2017-07-17T03:13:45.064Z,5
2017-07-17T03:14:25.960Z,5
2017-07-17T03:15:06.847Z,5
2017-07-17T03:15:47.736Z,5
2017-07-17T03:16:28.623Z,5
2017-07-17T03:17:09.520Z,5
2017-07-17T03:17:50.429Z,5
2017-07-17T03:18:31.322Z,5
2017-07-17T03:19:12.220Z,5
2017-07-17T03:19:53.113Z,10
2017-07-17T03:20:33.990Z,10
2017-07-17T03:21:14.884Z,10
2017-07-17T03:21:55.780Z,10
2017-07-17T03:22:36.670Z,10
2017-07-17T03:23:17.559Z,5
2017-07-17T03:23:58.456Z,5
2017-07-17T03:24:39.344Z,5
2017-07-17T03:25:20.234Z,10
2017-07-17T03:26:01.139Z,10
2017-07-17T03:26:42.055Z,10
2017-07-17T03:27:22.940Z,5
2017-07-17T03:28:03.824Z,10
2017-07-17T03:28:44.715Z,10
2017-07-17T03:29:25.610Z,10
2017-07-17T03:30:06.496Z,10
2017-07-17T03:30:47.382Z,10
2017-07-17T03:31:28.276Z,15
2017-07-17T03:32:09.162Z,20
2017-07-17T03:32:50.046Z,20
2017-07-17T03:33:30.938Z,20
2017-07-17T03:34:11.838Z,20
2017-07-17T03:34:52.729Z,20
2017-07-17T03:35:33.612Z,20
2017-07-17T03:36:14.508Z,25
2017-07-17T03:36:55.395Z,25
2017-07-17T03:37:36.291Z,30
2017-07-17T03:38:17.198Z,30
2017-07-17T03:38:58.113Z,35
2017-07-17T03:39:39.011Z,35
2017-07-17T03:40:19.900Z,35
2017-07-17T03:41:00.792Z,35
2017-07-17T03:41:41.688Z,35
2017-07-17T03:42:22.575Z,35
2017-07-17T03:43:03.457Z,35
2017-07-17T03:43:44.349Z,35
2017-07-17T03:44:25.287Z,35
2017-07-17T03:45:06.132Z,35
2017-07-17T03:45:47.025Z,40
2017-07-17T03:46:27.910Z,40
2017-07-17T03:47:08.800Z,40
2017-07-17T03:47:49.692Z,40
2017-07-17T03:48:30.580Z,40
2017-07-17T03:49:11.459Z,40
2017-07-17T03:49:52.349Z,45
2017-07-17T03:50:33.245Z,45
2017-07-17T03:51:14.134Z,45
2017-07-17T03:51:55.024Z,50
2017-07-17T03:52:35.920Z,55
2017-07-17T03:53:16.813Z,55
2017-07-17T03:53:57.707Z,55
2017-07-17T03:54:38.584Z,55
2017-07-17T03:55:19.479Z,55
2017-07-17T03:56:00.365Z,60
2017-07-17T03:56:41.255Z,60
2017-07-17T03:57:22.140Z,60
2017-07-17T03:58:03.021Z,60
2017-07-17T03:58:43.913Z,65
2017-07-17T03:59:24.810Z,60
2017-07-17T04:00:05.695Z,60
2017-07-17T04:00:46.576Z,55
2017-07-17T04:01:27.463Z,50
2017-07-17T04:02:08.352Z,55
2017-07-17T04:02:49.231Z,55
2017-07-17T04:03:30.139Z,55
2017-07-17T04:04:11.046Z,70
2017-07-17T04:04:51.910Z,75
2017-07-17T04:05:32.796Z,65
2017-07-17T04:06:13.693Z,50
2017-07-17T04:06:54.595Z,40
2017-07-17T04:07:35.497Z,40
2017-07-17T04:08:16.390Z,40
2017-07-17T04:08:57.268Z,35
2017-07-17T04:09:38.151Z,45
2017-07-17T04:10:19.041Z,50
2017-07-17T04:10:59.922Z,60
2017-07-17T04:11:40.807Z,70
2017-07-17T04:12:21.690Z,75
2017-07-17T04:13:02.619Z,75
2017-07-17T04:13:43.492Z,80
2017-07-17T04:14:24.381Z,75
2017-07-17T04:15:05.270Z,75
2017-07-17T04:15:46.154Z,75
2017-07-17T04:16:27.029Z,75
2017-07-17T04:17:07.919Z,75
2017-07-17T04:17:48.810Z,75
2017-07-17T04:18:29.702Z,75
2017-07-17T04:19:10.589Z,75
2017-07-17T04:19:51.482Z,80
2017-07-17T04:20:32.369Z,80
2017-07-17T04:21:13.249Z,80
2017-07-17T04:21:54.142Z,90
2017-07-17T04:22:35.031Z,90
2017-07-17T04:23:15.974Z,90
2017-07-17T04:23:56.854Z,90
2017-07-17T04:24:37.743Z,95
2017-07-17T04:25:18.630Z,100
2017-07-17T04:25:59.531Z,105
2017-07-17T04:26:40.421Z,105
2017-07-17T04:27:21.322Z,110
2017-07-17T04:28:02.205Z,110
2017-07-17T04:28:43.084Z,105
2017-07-17T04:29:23.999Z,105
2017-07-17T04:30:04.883Z,100
2017-07-17T04:30:45.779Z,95
2017-07-17T04:31:26.675Z,90
2017-07-17T04:32:07.555Z,100
2017-07-17T04:32:48.440Z,95
2017-07-17T04:33:29.322Z,95
2017-07-17T04:34:10.218Z,95
2017-07-17T04:34:51.113Z,95
2017-07-17T04:35:32.002Z,105
2017-07-17T04:36:12.895Z,105
2017-07-17T04:36:53.780Z,100
2017-07-17T04:37:34.662Z,105
2017-07-17T04:38:15.553Z,110
2017-07-17T04:38:56.447Z,115
2017-07-17T04:39:37.334Z,120
2017-07-17T04:40:18.236Z,125
2017-07-17T04:40:59.123Z,135
2017-07-17T04:41:40.010Z,130
2017-07-17T04:42:20.904Z,120
2017-07-17T04:43:01.792Z,115
2017-07-17T04:43:42.673Z,110
2017-07-17T04:44:23.566Z,105
2017-07-17T04:45:04.463Z,110
2017-07-17T04:45:45.371Z,110
2017-07-17T04:46:26.258Z,115
2017-07-17T04:47:07.155Z,115
2017-07-17T04:47:48.030Z,115
2017-07-17T04:48:28.930Z,125
2017-07-17T04:49:09.824Z,125
2017-07-17T04:49:50.712Z,130
2017-07-17T04:50:31.612Z,125
2017-07-17T04:51:12.495Z,125
2017-07-17T04:51:53.391Z,130
2017-07-17T04:52:34.287Z,130
2017-07-17T04:53:15.180Z,130
2017-07-17T04:53:56.069Z,130
2017-07-17T04:54:36.986Z,140
2017-07-17T04:55:17.860Z,160
2017-07-17T04:55:58.753Z,170
2017-07-17T04:56:39.639Z,155
2017-07-17T04:57:20.528Z,140
2017-07-17T04:58:01.421Z,140
2017-07-17T04:58:42.310Z,125
2017-07-17T04:59:23.202Z,125
2017-07-17T05:00:04.095Z,125
2017-07-17T05:00:44.992Z,130
2017-07-17T05:01:25.885Z,125
2017-07-17T05:02:06.774Z,120
2017-07-17T05:02:47.715Z,125
2017-07-17T05:03:28.605Z,125
2017-07-17T05:04:09.509Z,130
2017-07-17T05:04:50.380Z,130
2017-07-17T05:05:31.268Z,135
2017-07-17T05:06:12.158Z,135
2017-07-17T05:06:53.048Z,140
2017-07-17T05:07:33.936Z,150
2017-07-17T05:08:14.835Z,150
2017-07-17T05:08:55.727Z,155
2017-07-17T05:09:36.625Z,160
2017-07-17T05:10:17.522Z,160
2017-07-17T05:10:58.402Z,170
2017-07-17T05:11:39.305Z,160
2017-07-17T05:12:20.193Z,175
2017-07-17T05:13:01.078Z,185
2017-07-17T05:13:41.965Z,190
2017-07-17T05:14:22.855Z,190
2017-07-17T05:15:03.745Z,200
2017-07-17T05:15:44.623Z,200
2017-07-17T05:16:25.517Z,215
2017-07-17T05:17:06.414Z,220
2017-07-17T05:17:47.313Z,220
2017-07-17T05:18:28.189Z,225
2017-07-17T05:19:09.080Z,225
2017-07-17T05:19:49.986Z,210
2017-07-17T05:20:30.877Z,185
2017-07-17T05:21:11.768Z,180
2017-07-17T05:21:52.657Z,185
2017-07-17T05:22:33.547Z,210
2017-07-17T05:23:14.435Z,210
2017-07-17T05:23:55.324Z,230
2017-07-17T05:24:36.207Z,220
2017-07-17T05:25:17.099Z,205
2017-07-17T05:25:57.991Z,190
2017-07-17T05:26:38.875Z,200
2017-07-17T05:27:19.772Z,180
2017-07-17T05:28:00.663Z,155
2017-07-17T05:28:41.548Z,135
2017-07-17T05:29:22.429Z,150
2017-07-17T05:30:03.336Z,160
2017-07-17T05:30:44.217Z,160
2017-07-17T05:31:25.102Z,145
2017-07-17T05:32:05.989Z,125
2017-07-17T05:32:46.873Z,130
2017-07-17T05:33:27.776Z,120
2017-07-17T05:34:08.658Z,125
2017-07-17T05:34:49.591Z,135
2017-07-17T05:35:30.428Z,135
2017-07-17T05:36:11.340Z,125
2017-07-17T05:36:52.247Z,135
2017-07-17T05:37:33.160Z,150
2017-07-17T05:38:14.027Z,145
2017-07-17T05:38:54.904Z,150
2017-07-17T05:39:35.800Z,160
2017-07-17T05:40:16.680Z,165
2017-07-17T05:40:57.586Z,170
2017-07-17T05:41:38.455Z,175
2017-07-17T05:42:19.353Z,185
2017-07-17T05:43:00.247Z,200
2017-07-17T05:43:41.134Z,225
2017-07-17T05:44:22.037Z,240
2017-07-17T05:45:02.924Z,255
2017-07-17T05:45:43.804Z,260
2017-07-17T05:46:24.681Z,270
2017-07-17T05:47:05.575Z,295
2017-07-17T05:47:46.465Z,290
2017-07-17T05:48:27.345Z,290
2017-07-17T05:49:08.229Z,260
2017-07-17T05:49:49.119Z,245
2017-07-17T05:50:30.015Z,225
2017-07-17T05:51:10.905Z,265
2017-07-17T05:51:51.802Z,300
2017-07-17T05:52:32.683Z,280
2017-07-17T05:53:13.582Z,280
2017-07-17T05:53:54.485Z,325
2017-07-17T05:54:35.404Z,305
2017-07-17T05:55:16.304Z,275
2017-07-17T05:55:57.192Z,215
2017-07-17T05:56:38.081Z,200
2017-07-17T05:58:37.214Z,235
2017-07-17T05:59:18.106Z,270
2017-07-17T05:59:58.994Z,215
2017-07-17T06:00:39.881Z,205
2017-07-17T06:01:20.781Z,200
2017-07-17T06:02:01.678Z,200
2017-07-17T06:02:42.571Z,205
2017-07-17T06:03:23.455Z,215
2017-07-17T06:04:04.339Z,255
2017-07-17T06:04:45.224Z,310
2017-07-17T06:05:26.129Z,365
2017-07-17T06:06:07.012Z,495
2017-07-17T06:06:47.915Z,475
2017-07-17T06:07:28.802Z,380
2017-07-17T06:08:09.687Z,380
2017-07-17T06:08:50.572Z,390
2017-07-17T06:09:31.457Z,285
2017-07-17T06:10:12.335Z,270
2017-07-17T06:10:53.232Z,305
2017-07-17T06:11:34.130Z,285
2017-07-17T06:12:15.014Z,360
2017-07-17T06:12:55.925Z,420
2017-07-17T06:13:36.789Z,545
2017-07-17T06:14:17.686Z,565
2017-07-17T06:14:58.579Z,425
2017-07-17T06:15:39.459Z,355
2017-07-17T06:16:20.373Z,325
2017-07-17T06:17:01.255Z,295
2017-07-17T06:17:42.138Z,275
2017-07-17T06:18:23.042Z,295
2017-07-17T06:19:03.931Z,325
2017-07-17T06:19:44.829Z,305
2017-07-17T06:20:25.707Z,285
2017-07-17T06:21:06.631Z,320
2017-07-17T06:21:47.503Z,300
2017-07-17T06:22:28.403Z,295
2017-07-17T06:23:09.289Z,280
2017-07-17T06:23:50.186Z,285
2017-07-17T06:24:31.075Z,255
2017-07-17T06:25:11.974Z,230
2017-07-17T06:25:52.865Z,210
2017-07-17T06:26:33.757Z,205
2017-07-17T06:27:14.652Z,200
2017-07-17T06:27:55.540Z,225
2017-07-17T06:28:36.427Z,250
2017-07-17T06:29:17.318Z,230
2017-07-17T06:29:58.203Z,195
2017-07-17T06:30:39.092Z,185
2017-07-17T06:31:20.011Z,180
2017-07-17T06:32:00.900Z,180
2017-07-17T06:32:41.783Z,190
2017-07-17T06:33:22.672Z,200
2017-07-17T06:34:03.557Z,200
2017-07-17T06:34:44.458Z,205
2017-07-17T06:35:25.353Z,215
2017-07-17T06:36:06.242Z,205
2017-07-17T06:36:47.136Z,200
2017-07-17T06:37:28.025Z,200
2017-07-17T06:38:08.919Z,215
2017-07-17T06:38:49.822Z,235
2017-07-17T06:39:30.708Z,225
2017-07-17T06:40:11.606Z,220
2017-07-17T06:40:52.501Z,240
2017-07-17T06:41:33.401Z,470
2017-07-17T06:42:14.283Z,390
2017-07-17T06:42:55.174Z,310
2017-07-17T06:43:36.061Z,2035
2017-07-17T06:44:16.957Z,610
2017-07-17T06:44:57.845Z,1885
2017-07-17T06:45:38.748Z,1930
2017-07-17T06:46:19.644Z,1435
2017-07-17T06:47:00.532Z,1170
2017-07-17T06:47:41.424Z,1235
2017-07-17T06:48:22.314Z,1595
2017-07-17T06:49:03.217Z,2040
2017-07-17T06:49:44.169Z,2220
2017-07-17T06:50:25.033Z,2265
2017-07-17T06:51:05.927Z,2180
2017-07-17T06:51:46.827Z,615
2017-07-17T06:52:27.713Z,370
2017-07-17T06:53:08.606Z,330
2017-07-17T06:53:49.503Z,400
2017-07-17T06:54:30.397Z,1535
2017-07-17T06:55:11.282Z,560
2017-07-17T06:55:52.193Z,350
2017-07-17T06:56:33.087Z,280
2017-07-17T06:57:13.974Z,355
2017-07-17T06:57:54.867Z,350
2017-07-17T06:58:35.762Z,2150
2017-07-17T06:59:16.670Z,1620
2017-07-17T06:59:57.565Z,2205
2017-07-17T07:00:38.454Z,2200
2017-07-17T07:01:19.347Z,2095
2017-07-17T07:02:00.240Z,1760
2017-07-17T07:02:41.133Z,2325
2017-07-17T07:03:22.026Z,2430
2017-07-17T07:04:02.936Z,2470
2017-07-17T07:04:43.838Z,2475
2017-07-17T07:05:24.728Z,2545
2017-07-17T07:06:05.639Z,2505
2017-07-17T07:06:46.565Z,2435
2017-07-17T07:07:27.453Z,2345
2017-07-17T07:08:08.351Z,750
2017-07-17T07:08:49.248Z,585
2017-07-17T07:09:30.145Z,450
2017-07-17T07:10:11.040Z,1890
2017-07-17T07:10:51.930Z,2190
2017-07-17T07:11:32.909Z,2300
2017-07-17T07:12:13.827Z,2400
2017-07-17T07:12:54.730Z,2505
2017-07-17T07:13:35.631Z,2515
2017-07-17T07:14:16.532Z,2480
2017-07-17T07:14:57.434Z,2420
2017-07-17T07:15:38.347Z,2395
2017-07-17T07:16:19.248Z,2410
2017-07-17T07:17:00.154Z,2410
2017-07-17T07:17:41.047Z,2445
2017-07-17T07:18:21.952Z,2490
2017-07-17T07:20:21.744Z,2280
2017-07-17T07:21:02.691Z,780
2017-07-17T07:21:43.601Z,335
2017-07-17T07:22:24.509Z,295
2017-07-17T07:23:05.419Z,320
2017-07-17T07:23:46.325Z,435
2017-07-17T07:24:27.222Z,1865
2017-07-17T07:25:08.152Z,2235
2017-07-17T07:25:49.031Z,455
2017-07-17T07:26:29.921Z,295
2017-07-17T07:27:10.820Z,250
2017-07-17T07:27:51.717Z,230
2017-07-17T07:28:32.620Z,230
2017-07-17T07:29:13.526Z,215
2017-07-17T07:29:54.423Z,210
2017-07-17T07:30:35.322Z,215
2017-07-17T07:31:16.235Z,215
2017-07-17T07:31:57.138Z,230
2017-07-17T07:32:38.042Z,240
2017-07-17T07:33:18.941Z,285
2017-07-17T07:33:59.837Z,2470
2017-07-17T07:34:40.742Z,2795
2017-07-17T07:35:21.645Z,295
2017-07-17T07:36:02.540Z,285
2017-07-17T07:36:43.496Z,335
2017-07-17T07:37:24.395Z,2745
2017-07-17T07:38:05.316Z,2750
2017-07-17T07:38:46.259Z,2680
2017-07-17T07:39:27.109Z,2610
2017-07-17T07:40:08.001Z,2575
2017-07-17T07:40:48.909Z,2575
2017-07-17T07:41:29.800Z,2595
2017-07-17T07:42:10.701Z,2685
2017-07-17T07:42:51.599Z,2745
2017-07-17T07:43:32.504Z,2815
2017-07-17T07:44:13.400Z,2855
2017-07-17T07:44:54.308Z,2870
2017-07-17T07:45:35.203Z,2860
2017-07-17T07:46:16.102Z,2780
2017-07-17T07:46:57.002Z,1420
2017-07-17T07:47:37.902Z,390
2017-07-17T07:48:18.795Z,330
2017-07-17T07:48:59.716Z,285
2017-07-17T07:49:40.590Z,265
2017-07-17T07:50:21.524Z,260
2017-07-17T07:51:02.420Z,270
2017-07-17T07:51:43.318Z,290
2017-07-17T07:52:24.222Z,310
2017-07-17T07:53:05.198Z,315
2017-07-17T07:53:46.095Z,340
2017-07-17T07:54:27.002Z,325
2017-07-17T07:55:07.912Z,340
2017-07-17T07:55:48.804Z,345
2017-07-17T07:56:29.685Z,555
2017-07-17T07:57:10.585Z,530
2017-07-17T07:57:51.494Z,640
2017-07-17T07:58:32.401Z,425
2017-07-17T07:59:13.307Z,390
2017-07-17T07:59:54.193Z,405
2017-07-17T08:00:35.084Z,590
2017-07-17T08:01:15.985Z,600
2017-07-17T08:01:56.876Z,615
2017-07-17T08:02:37.771Z,620
2017-07-17T08:03:18.677Z,650
2017-07-17T08:03:59.579Z,695
2017-07-17T08:04:40.478Z,765
2017-07-17T08:05:21.366Z,805
2017-07-17T08:06:02.265Z,790
2017-07-17T08:06:43.167Z,770
2017-07-17T08:07:24.097Z,435
2017-07-17T08:08:05.000Z,355
2017-07-17T08:08:45.900Z,330
2017-07-17T08:09:26.809Z,295
2017-07-17T08:10:07.710Z,255
2017-07-17T08:10:48.608Z,235
2017-07-17T08:11:29.519Z,230
2017-07-17T08:12:10.408Z,240
2017-07-17T08:12:51.313Z,270
2017-07-17T08:13:32.219Z,305
2017-07-17T08:14:13.116Z,345
2017-07-17T08:14:54.015Z,385
2017-07-17T08:15:34.916Z,480
2017-07-17T08:16:15.829Z,1055
2017-07-17T08:16:56.728Z,545
2017-07-17T08:17:37.627Z,2300
2017-07-17T08:18:18.531Z,2505
2017-07-17T08:18:59.421Z,2030
2017-07-17T08:19:40.322Z,2320
2017-07-17T08:20:21.229Z,1185
2017-07-17T08:21:02.124Z,2160
2017-07-17T08:21:43.015Z,2235
2017-07-17T08:22:23.950Z,1405
2017-07-17T08:23:04.873Z,2675
2017-07-17T08:23:45.777Z,2650
2017-07-17T08:24:26.710Z,2865
2017-07-17T08:25:07.596Z,2935
2017-07-17T08:25:48.503Z,3055
2017-07-17T08:26:29.413Z,3170
2017-07-17T08:27:10.319Z,3210
2017-07-17T08:27:51.234Z,3215
2017-07-17T08:28:32.144Z,3170
2017-07-17T08:29:13.047Z,3095
2017-07-17T08:29:53.943Z,2935
2017-07-17T08:30:34.840Z,2975
2017-07-17T08:31:15.750Z,3190
2017-07-17T08:31:56.683Z,3270
2017-07-17T08:32:37.595Z,820
2017-07-17T08:33:18.498Z,685
2017-07-17T08:33:59.414Z,610
2017-07-17T08:34:40.320Z,560
2017-07-17T08:35:21.235Z,540
2017-07-17T08:36:02.137Z,805
2017-07-17T08:36:43.025Z,475
2017-07-17T08:37:23.915Z,470
2017-07-17T08:38:04.818Z,480
2017-07-17T08:38:45.727Z,480
2017-07-17T08:39:26.635Z,465
2017-07-17T08:40:07.544Z,450
2017-07-17T08:40:48.446Z,415
2017-07-17T08:41:29.351Z,410
2017-07-17T08:42:10.248Z,415
2017-07-17T08:42:51.156Z,485
2017-07-17T08:43:32.082Z,3180
2017-07-17T08:44:12.971Z,3100
2017-07-17T08:44:53.882Z,3095
2017-07-17T08:45:34.779Z,3095
2017-07-17T08:46:15.686Z,3060
2017-07-17T08:46:56.578Z,3040
2017-07-17T08:47:37.469Z,3025
2017-07-17T08:48:18.371Z,3030
2017-07-17T08:48:59.268Z,3130
2017-07-17T08:49:40.170Z,3230
2017-07-17T08:50:21.075Z,3255
2017-07-17T08:51:01.975Z,3220
2017-07-17T08:51:42.877Z,495
2017-07-17T08:52:23.783Z,450
2017-07-17T08:53:04.683Z,485
2017-07-17T08:53:45.594Z,575
2017-07-17T08:54:26.504Z,775
2017-07-17T08:55:07.434Z,925
2017-07-17T08:55:48.328Z,2665
2017-07-17T08:56:29.227Z,715
2017-07-17T08:57:10.129Z,815
2017-07-17T08:57:51.041Z,3305
2017-07-17T08:58:31.974Z,3375
2017-07-17T08:59:12.881Z,3360
2017-07-17T08:59:53.774Z,3255
2017-07-17T09:00:34.697Z,3180
2017-07-17T09:01:15.608Z,3110
2017-07-17T09:01:56.508Z,3090
2017-07-17T09:02:37.401Z,3110
2017-07-17T09:03:18.305Z,3135
2017-07-17T09:03:59.199Z,3150
2017-07-17T09:04:40.131Z,690
2017-07-17T09:05:21.027Z,465
2017-07-17T09:06:01.953Z,510
2017-07-17T09:06:42.854Z,920
2017-07-17T09:07:23.761Z,2980
2017-07-17T09:08:04.660Z,2880
2017-07-17T09:08:45.584Z,2725
2017-07-17T09:09:26.496Z,2835
2017-07-17T09:10:07.392Z,2835
2017-07-17T09:10:48.296Z,2900
2017-07-17T09:11:29.210Z,2940
2017-07-17T09:12:10.110Z,2955
2017-07-17T09:12:51.045Z,2965
2017-07-17T09:13:31.945Z,3070
2017-07-17T09:14:12.847Z,3150
2017-07-17T09:14:53.752Z,3245
2017-07-17T09:15:34.658Z,3385
2017-07-17T09:16:15.564Z,3470
2017-07-17T09:16:56.493Z,3350
2017-07-17T09:17:37.383Z,2800
2017-07-17T09:18:18.296Z,2655
2017-07-17T09:18:59.190Z,2800
2017-07-17T09:19:40.088Z,2710
2017-07-17T09:20:20.992Z,2595
2017-07-17T09:21:01.908Z,2610
2017-07-17T09:21:42.813Z,2565
2017-07-17T09:22:23.721Z,2660
2017-07-17T09:23:04.634Z,2750
2017-07-17T09:23:45.534Z,2835
2017-07-17T09:24:26.450Z,2810
2017-07-17T09:25:07.408Z,3085
2017-07-17T09:25:48.290Z,3180
2017-07-17T09:26:29.207Z,3305
2017-07-17T09:27:10.101Z,3380
2017-07-17T09:27:51.014Z,3415
2017-07-17T09:28:31.926Z,3395
2017-07-17T09:29:12.844Z,3380
2017-07-17T09:29:53.742Z,3430
2017-07-17T09:30:34.653Z,3465
2017-07-17T09:31:15.577Z,3560
2017-07-17T09:31:56.487Z,3635
2017-07-17T09:32:37.398Z,3690
2017-07-17T09:33:18.305Z,3695
2017-07-17T09:33:59.217Z,3665
2017-07-17T09:34:40.131Z,3550
2017-07-17T09:35:21.042Z,3445
2017-07-17T09:36:01.956Z,3390
2017-07-17T09:36:42.864Z,3420
2017-07-17T09:37:23.783Z,3465
2017-07-17T09:38:04.692Z,3350
2017-07-17T09:38:45.611Z,3270
2017-07-17T09:39:26.517Z,2170
2017-07-17T09:40:07.453Z,1685
2017-07-17T09:40:48.433Z,3000
2017-07-17T09:41:29.346Z,2265